Time;durP1;ratioP1;P1;durP2;ratioP2;P2;SDS_P1;SDS_P2;PMS_P1;PMS_P2;Temp;Humidity;BMP_temperature;BMP_pressure;BME280_temperature;BME280_humidity;BME280_pressure;Samples;Min_cycle;Max_cycle;Signal;HPM_P1;HPM_P2
2022/12/18 00:01:05;;;;;;;6.13;0.85;;;;;;;10.70;70.37;100217.78;7390219;19;20010;-58
2022/12/18 00:03:35;;;;;;;3.22;0.65;;;;;;;11.16;69.26;100216.38;7394565;19;20070;-58
2022/12/18 00:06:02;;;;;;;0.32;0.32;;;;;;;11.46;68.98;100195.78;7392379;19;20051;-59
2022/12/18 00:08:28;;;;;;;0.52;0.52;;;;;;;11.61;67.91;100191.03;7391971;19;20025;-58
2022/12/18 00:10:54;;;;;;;1.35;0.85;;;;;;;11.57;67.78;100201.59;7392859;19;20011;-58
2022/12/18 00:13:21;;;;;;;2.60;0.90;;;;;;;11.55;68.08;100204.09;7395348;19;20041;-58
2022/12/18 00:15:47;;;;;;;2.60;1.48;;;;;;;11.11;69.08;100214.25;7391400;19;20062;-58
2022/12/18 00:18:13;;;;;;;1.30;1.02;;;;;;;10.98;69.70;100205.31;7391291;19;20498;-58
2022/12/18 00:20:39;;;;;;;0.88;0.88;;;;;;;11.02;69.78;100211.50;7390651;19;20010;-59
2022/12/18 00:23:07;;;;;;;0.98;0.95;;;;;;;10.88;70.25;100212.13;7395059;19;20148;-59
2022/12/18 00:25:34;;;;;;;0.93;0.90;;;;;;;11.08;69.82;100217.97;7392318;19;20010;-59
2022/12/18 00:28:02;;;;;;;0.45;0.40;;;;;;;10.91;70.56;100220.34;7391786;19;20014;-59
2022/12/18 00:30:28;;;;;;;13.80;1.95;;;;;;;10.80;70.47;100211.72;7391423;19;20006;-60
2022/12/18 00:32:55;;;;;;;0.60;0.32;;;;;;;10.68;70.99;100223.03;7394564;19;20015;-59
2022/12/18 00:35:21;;;;;;;1.73;1.17;;;;;;;10.74;71.28;100223.94;7390779;19;20074;-59
2022/12/18 00:37:47;;;;;;;3.45;1.02;;;;;;;10.88;70.51;100220.50;7391069;19;20011;-59
2022/12/18 00:40:13;;;;;;;0.32;0.32;;;;;;;10.84;70.45;100222.69;7389155;19;20348;-60
2022/12/18 00:42:55;;;;;;;0.85;0.80;;;;;;;10.50;70.77;100219.00;7393898;19;20014;-59
2022/12/18 00:45:26;;;;;;;0.45;0.45;;;;;;;10.40;70.83;100211.94;7386460;19;20018;-58
2022/12/18 00:47:52;;;;;;;0.30;0.30;;;;;;;10.26;71.20;100212.56;7388752;19;20343;-59
2022/12/18 00:50:19;;;;;;;2.20;0.57;;;;;;;10.38;70.88;100210.84;7391600;19;20207;-59
2022/12/18 00:52:45;;;;;;;2.70;1.27;;;;;;;10.36;70.54;100204.97;7395327;19;20043;-59
2022/12/18 00:55:12;;;;;;;0.55;0.55;;;;;;;10.38;70.48;100202.50;7391831;19;20014;-58
2022/12/18 00:57:39;;;;;;;2.47;1.23;;;;;;;10.21;70.03;100204.03;7392257;19;20015;-59
2022/12/18 01:00:07;;;;;;;0.82;0.43;;;;;;;10.07;70.21;100208.19;7389544;19;20010;-59
2022/12/18 01:02:34;;;;;;;1.95;0.47;;;;;;;10.00;70.56;100202.94;7392346;19;20066;-59
2022/12/18 01:05:02;;;;;;;2.53;1.38;;;;;;;9.90;70.79;100207.72;7390722;19;20011;-59
2022/12/18 01:07:29;;;;;;;0.80;0.40;;;;;;;10.16;70.30;100191.53;7390551;19;20010;-59
2022/12/18 01:09:55;;;;;;;0.55;0.55;;;;;;;10.25;69.64;100199.88;7388223;19;20017;-59
2022/12/18 01:12:22;;;;;;;1.25;0.52;;;;;;;10.07;69.54;100194.28;7391025;19;20011;-59
2022/12/18 01:14:50;;;;;;;0.73;0.63;;;;;;;9.87;70.17;100186.38;7390011;19;20018;-59
2022/12/18 01:17:16;;;;;;;0.70;0.70;;;;;;;9.64;70.58;100184.19;7387522;19;20073;-59
2022/12/18 01:19:42;;;;;;;1.23;1.02;;;;;;;9.61;71.29;100187.13;7386258;19;20036;-59
2022/12/18 01:22:10;;;;;;;1.55;1.45;;;;;;;9.41;71.49;100186.78;7390109;19;20010;-59
2022/12/18 01:24:36;;;;;;;1.02;1.02;;;;;;;9.50;71.10;100189.59;7389865;19;20010;-59
2022/12/18 01:27:02;;;;;;;0.95;0.68;;;;;;;9.43;71.24;100178.75;7388440;19;20025;-59
2022/12/18 01:29:28;;;;;;;0.60;0.60;;;;;;;9.68;69.87;100181.28;7387950;19;20014;-59
2022/12/18 01:31:55;;;;;;;4.13;1.65;;;;;;;9.50;70.13;100184.03;7389936;19;20021;-59
2022/12/18 01:34:23;;;;;;;1.20;0.90;;;;;;;9.41;70.46;100181.22;7389376;19;20010;-59
2022/12/18 01:36:51;;;;;;;1.25;0.68;;;;;;;9.44;70.88;100180.31;7389484;19;20479;-59
2022/12/18 01:39:18;;;;;;;0.93;0.85;;;;;;;9.51;70.50;100174.44;7388067;19;20646;-59
2022/12/18 01:42:03;;;;;;;0.17;0.17;;;;;;;9.55;70.39;100177.88;7390331;19;20486;-59
2022/12/18 01:45:04;;;;;;;0.77;0.77;;;;;;;9.42;70.05;100172.41;7386835;19;20534;-59
2022/12/18 01:47:38;;;;;;;0.73;0.73;;;;;;;9.38;70.50;100171.78;7388986;19;20078;-59
2022/12/18 01:50:12;;;;;;;1.73;1.02;;;;;;;9.34;70.60;100175.94;7389371;19;20021;-59
2022/12/18 01:52:42;;;;;;;2.53;1.40;;;;;;;9.24;70.40;100177.16;7391222;19;20014;-59
2022/12/18 01:55:10;;;;;;;8.48;1.13;;;;;;;9.27;70.84;100170.69;7388125;19;20014;-59
2022/12/18 01:57:39;;;;;;;0.77;0.77;;;;;;;9.51;69.81;100163.31;7393904;19;20332;-59
2022/12/18 02:00:11;;;;;;;7.53;1.20;;;;;;;9.52;69.66;100167.66;7394324;19;20011;-59
2022/12/18 02:02:42;;;;;;;1.85;0.63;;;;;;;9.48;69.45;100170.59;7395294;19;20026;-59
2022/12/18 02:05:11;;;;;;;0.90;0.60;;;;;;;9.40;69.68;100174.13;7393891;19;20077;-59
2022/12/18 02:07:48;;;;;;;0.80;0.80;;;;;;;9.37;69.68;100175.81;7393371;19;20018;-59
2022/12/18 02:10:24;;;;;;;0.85;0.85;;;;;;;9.37;70.20;100175.81;7396357;19;20014;-59
2022/12/18 02:13:02;;;;;;;0.43;0.43;;;;;;;9.32;69.86;100190.31;7398612;19;20010;-59
2022/12/18 02:15:39;;;;;;;0.43;0.43;;;;;;;9.20;70.82;100188.44;7393498;19;20014;-59
2022/12/18 02:18:30;;;;;;;0.30;0.30;;;;;;;9.31;71.29;100194.34;7393671;19;20763;-59
2022/12/18 02:21:15;;;;;;;1.20;1.00;;;;;;;9.50;70.42;100197.94;7391917;19;20071;-60
2022/12/18 02:24:05;;;;;;;3.92;1.05;;;;;;;9.49;70.61;100199.16;7398877;19;20440;-59
2022/12/18 02:26:37;;;;;;;3.92;2.30;;;;;;;9.55;69.85;100202.88;7393525;19;20369;-59
2022/12/18 02:29:13;;;;;;;21.40;2.13;;;;;;;9.59;69.72;100204.28;7393396;19;20015;-59
2022/12/18 02:31:47;;;;;;;4.18;1.00;;;;;;;9.69;69.33;100199.50;7394374;19;20030;-59
2022/12/18 02:34:16;;;;;;;0.40;0.40;;;;;;;9.74;69.02;100212.81;7394349;19;20352;-59
2022/12/18 02:36:45;;;;;;;0.73;0.40;;;;;;;9.53;68.81;100210.91;7396205;19;20015;-59
2022/12/18 02:39:13;;;;;;;1.95;0.80;;;;;;;9.39;69.04;100212.25;7392786;19;20377;-59
2022/12/18 02:41:48;;;;;;;7.35;1.33;;;;;;;9.14;69.76;100218.03;7395264;19;20505;-59
2022/12/18 02:44:14;;;;;;;0.60;0.60;;;;;;;9.04;70.42;100208.09;7394263;19;20018;-59
2022/12/18 02:47:00;;;;;;;0.55;0.55;;;;;;;9.07;70.29;100219.06;7391462;19;20827;-59
2022/12/18 02:49:48;;;;;;;1.65;1.35;;;;;;;9.00;70.29;100224.94;7393160;19;20042;-59
2022/12/18 02:52:26;;;;;;;9.60;2.00;;;;;;;9.18;70.08;100219.44;7394648;19;20025;-59
2022/12/18 02:55:05;;;;;;;1.02;1.02;;;;;;;9.36;69.59;100209.59;7392386;19;20403;-59
2022/12/18 02:57:55;;;;;;;6.32;2.20;;;;;;;9.51;69.21;100214.13;7392745;19;20015;-59
2022/12/18 03:00:41;;;;;;;2.70;1.25;;;;;;;9.63;68.80;100204.91;7390149;19;20007;-60
2022/12/18 03:03:26;;;;;;;1.58;1.25;;;;;;;9.73;68.42;100205.69;7394464;19;20019;-59
2022/12/18 03:06:10;;;;;;;0.40;0.40;;;;;;;9.74;68.56;100205.25;7393969;19;20038;-59
2022/12/18 03:08:42;;;;;;;0.40;0.40;;;;;;;9.74;68.25;100187.78;7391345;19;20021;-59
2022/12/18 03:11:10;;;;;;;0.75;0.75;;;;;;;9.82;67.89;100191.81;7394079;19;20372;-59
2022/12/18 03:13:55;;;;;;;2.60;1.98;;;;;;;9.69;67.93;100186.38;7398161;19;20084;-59
2022/12/18 03:16:27;;;;;;;6.93;1.05;;;;;;;9.61;67.97;100179.59;7391373;19;20084;-59
2022/12/18 03:19:07;;;;;;;1.00;0.73;;;;;;;9.68;68.16;100178.50;7393451;19;20011;-59
2022/12/18 03:21:49;;;;;;;2.00;1.20;;;;;;;9.73;68.01;100175.09;7390517;19;20011;-59
2022/12/18 03:24:18;;;;;;;0.52;0.50;;;;;;;9.81;67.44;100170.81;7391656;19;20404;-59
2022/12/18 03:26:51;;;;;;;2.20;1.23;;;;;;;9.83;67.64;100157.94;7390266;19;20042;-59
2022/12/18 03:29:27;;;;;;;0.88;0.88;;;;;;;9.96;67.54;100155.03;7389360;19;20037;-59
2022/12/18 03:31:58;;;;;;;1.27;1.17;;;;;;;9.94;67.43;100141.56;7390823;19;20014;-59
2022/12/18 03:34:32;;;;;;;1.35;0.77;;;;;;;9.94;67.99;100135.22;7391999;19;20025;-60
2022/12/18 03:37:02;;;;;;;0.68;0.68;;;;;;;9.97;67.75;100117.63;7391579;19;20467;-60
2022/12/18 03:39:28;;;;;;;4.53;2.67;;;;;;;10.07;67.57;100116.38;7392238;19;20014;-59
2022/12/18 03:42:25;;;;;;;2.72;0.77;;;;;;;10.14;67.62;100120.88;7394675;19;20459;-59
2022/12/18 03:45:15;;;;;;;1.13;1.05;;;;;;;10.35;67.19;100109.53;7391499;19;20019;-60
2022/12/18 03:48:11;;;;;;;0.28;0.28;;;;;;;10.37;67.34;100104.28;7391473;19;20475;-59
2022/12/18 03:51:25;;;;;;;1.00;0.50;;;;;;;10.32;67.69;100104.13;7393222;19;20008;-59
2022/12/18 03:54:00;;;;;;;4.88;2.45;;;;;;;10.18;67.63;100100.00;7391099;19;20014;-59
2022/12/18 03:56:35;;;;;;;1.00;1.00;;;;;;;10.47;67.19;100100.25;7390565;19;20030;-59
2022/12/18 03:59:04;;;;;;;5.53;1.70;;;;;;;10.57;66.81;100101.75;7388624;19;20375;-59
2022/12/18 04:01:35;;;;;;;1.67;0.80;;;;;;;10.63;66.30;100105.44;7390906;19;20011;-59
2022/12/18 04:04:04;;;;;;;0.93;0.93;;;;;;;10.77;66.58;100103.22;7390509;19;20074;-59
2022/12/18 04:06:34;;;;;;;0.40;0.40;;;;;;;10.67;66.60;100102.50;7391231;19;20419;-59
2022/12/18 04:09:01;;;;;;;0.43;0.43;;;;;;;10.44;67.25;100101.16;7390756;19;20033;-59
2022/12/18 04:11:28;;;;;;;10.35;2.20;;;;;;;10.43;67.48;100099.63;7391360;19;20014;-59
2022/12/18 04:13:58;;;;;;;3.25;1.98;;;;;;;10.47;67.15;100096.69;7389615;19;20017;-59
2022/12/18 04:16:28;;;;;;;3.42;1.98;;;;;;;10.48;67.03;100087.84;7389641;19;20078;-58
2022/12/18 04:18:58;;;;;;;1.35;0.85;;;;;;;10.50;67.56;100071.44;7387178;19;20011;-58
2022/12/18 04:21:26;;;;;;;6.90;1.67;;;;;;;10.57;67.74;100059.97;7387937;19;20367;-58
2022/12/18 04:23:53;;;;;;;1.00;0.98;;;;;;;10.24;68.13;100041.69;7388936;19;20150;-58
2022/12/18 04:26:22;;;;;;;2.22;1.23;;;;;;;10.14;68.75;100037.38;7388337;19;20038;-59
2022/12/18 04:29:05;;;;;;;10.82;2.47;;;;;;;10.24;69.04;100030.56;7389473;19;20015;-59
2022/12/18 04:31:31;;;;;;;1.40;1.15;;;;;;;10.35;68.78;100026.03;7389996;19;20459;-59
2022/12/18 04:33:58;;;;;;;6.57;1.77;;;;;;;10.38;69.05;100030.66;7388909;19;20033;-59
2022/12/18 04:36:24;;;;;;;5.75;1.60;;;;;;;10.54;69.21;100016.38;7388032;19;20015;-59
2022/12/18 04:38:51;;;;;;;1.27;0.80;;;;;;;10.56;69.32;100013.09;7388517;19;20014;-59
2022/12/18 04:41:17;;;;;;;2.60;1.83;;;;;;;10.62;69.20;100008.44;7390442;19;20129;-58
2022/12/18 04:43:46;;;;;;;3.00;0.98;;;;;;;10.75;69.27;100016.56;7389503;19;20074;-58
2022/12/18 04:46:13;;;;;;;6.03;1.17;;;;;;;10.81;69.39;100017.44;7390568;19;20015;-59
2022/12/18 04:48:40;;;;;;;0.52;0.50;;;;;;;10.78;69.13;100004.47;7390689;19;20017;-59
2022/12/18 04:51:07;;;;;;;8.38;3.05;;;;;;;10.87;69.44;100004.44;7392913;19;20030;-58
2022/12/18 04:53:33;;;;;;;10.82;1.55;;;;;;;10.90;69.57;100003.47;7392538;19;20138;-58
2022/12/18 04:56:09;;;;;;;4.03;1.05;;;;;;;11.00;69.32;99977.09;7390851;19;20014;-58
2022/12/18 04:58:37;;;;;;;5.18;1.80;;;;;;;11.09;69.51;99974.22;7389163;19;20007;-59
2022/12/18 05:01:04;;;;;;;8.88;0.82;;;;;;;11.10;69.73;99962.63;7388384;19;20010;-59
2022/12/18 05:03:30;;;;;;;4.97;1.85;;;;;;;11.27;69.93;99971.31;7394131;19;20015;-58
2022/12/18 05:05:56;;;;;;;0.73;0.73;;;;;;;11.38;69.87;99954.78;7390457;19;20014;-58
2022/12/18 05:08:23;;;;;;;5.53;3.58;;;;;;;11.35;70.18;99955.75;7390738;19;20006;-58
2022/12/18 05:10:49;;;;;;;6.32;0.70;;;;;;;11.41;69.89;99953.84;7390630;19;20034;-58
2022/12/18 05:13:15;;;;;;;3.15;1.98;;;;;;;11.37;69.90;99947.66;7392121;19;20014;-58
2022/12/18 05:15:42;;;;;;;15.02;1.92;;;;;;;11.43;69.77;99952.09;7389235;19;20038;-58
2022/12/18 05:18:08;;;;;;;4.30;2.78;;;;;;;11.36;69.87;99937.78;7389172;19;20020;-58
2022/12/18 05:20:34;;;;;;;4.18;2.03;;;;;;;11.34;69.97;99938.25;7388103;19;20021;-58
2022/12/18 05:23:00;;;;;;;1.33;1.23;;;;;;;11.37;70.22;99937.28;7392978;19;20466;-58
2022/12/18 05:25:27;;;;;;;1.50;0.60;;;;;;;11.52;70.05;99926.13;7388186;19;20010;-59
2022/12/18 05:27:53;;;;;;;20.50;1.40;;;;;;;11.60;69.64;99932.13;7389044;19;20010;-59
2022/12/18 05:30:19;;;;;;;10.32;2.55;;;;;;;11.68;69.68;99936.84;7388596;19;20566;-58
2022/12/18 05:32:45;;;;;;;2.75;1.35;;;;;;;11.83;69.55;99951.56;7405664;19;20513;-58
2022/12/18 05:35:11;;;;;;;5.60;1.63;;;;;;;11.82;69.30;99958.41;7401792;19;20019;-59
2022/12/18 05:37:37;;;;;;;3.35;1.63;;;;;;;11.92;68.96;99957.06;7403428;19;20015;-59
2022/12/18 05:40:04;;;;;;;7.20;2.22;;;;;;;12.04;68.61;99969.19;7401866;19;20392;-59
2022/12/18 05:42:31;;;;;;;3.75;1.83;;;;;;;12.06;68.08;99970.22;7407551;19;20014;-59
2022/12/18 05:44:57;;;;;;;9.57;1.30;;;;;;;12.05;68.01;99963.09;7402860;19;20597;-58
2022/12/18 05:47:23;;;;;;;9.02;2.28;;;;;;;11.91;68.20;99963.88;7401810;19;20022;-59
2022/12/18 05:49:49;;;;;;;1.80;1.67;;;;;;;11.89;67.60;99958.00;7404761;19;20007;-59
2022/12/18 05:52:15;;;;;;;1.33;1.13;;;;;;;11.85;67.50;99962.25;7404611;19;20010;-59
2022/12/18 05:54:41;;;;;;;1.65;0.43;;;;;;;11.66;67.98;99958.84;7402655;19;20007;-58
2022/12/18 05:57:07;;;;;;;8.40;2.17;;;;;;;11.58;68.12;99946.56;7402776;19;20530;-58
2022/12/18 05:59:33;;;;;;;17.45;3.72;;;;;;;11.59;67.68;99942.50;7401774;19;20021;-59
2022/12/18 06:02:00;;;;;;;1.30;1.20;;;;;;;11.69;68.04;99924.47;7403576;19;20373;-59
2022/12/18 06:04:31;;;;;;;2.95;1.58;;;;;;;11.68;67.71;99900.59;7402980;19;20017;-58
2022/12/18 06:06:57;;;;;;;1.67;1.58;;;;;;;11.51;67.81;99919.03;7402483;19;20632;-59
2022/12/18 06:09:23;;;;;;;1.05;0.52;;;;;;;11.63;68.17;99931.91;7401413;19;20530;-59
2022/12/18 06:11:51;;;;;;;8.57;2.00;;;;;;;11.64;68.24;99922.31;7405088;19;20359;-58
2022/12/18 06:14:18;;;;;;;3.63;1.58;;;;;;;11.75;67.96;99928.09;7402557;19;20463;-59
2022/12/18 06:16:44;;;;;;;2.58;1.45;;;;;;;11.55;68.54;99914.03;7403246;19;20078;-58
2022/12/18 06:19:15;;;;;;;7.22;2.63;;;;;;;11.53;68.02;99916.53;7401199;19;20010;-58
2022/12/18 06:21:41;;;;;;;3.67;1.90;;;;;;;11.53;68.30;99921.34;7403685;19;20559;-59
2022/12/18 06:24:08;;;;;;;1.17;0.68;;;;;;;11.58;68.33;99915.88;7403216;19;20033;-59
2022/12/18 06:26:36;;;;;;;3.20;1.63;;;;;;;11.79;67.78;99917.53;7401280;19;20435;-59
2022/12/18 06:29:02;;;;;;;10.82;2.38;;;;;;;11.60;67.97;99916.16;7400069;19;20022;-59
2022/12/18 06:31:28;;;;;;;4.97;1.75;;;;;;;11.42;68.51;99913.53;7401121;19;20336;-58
2022/12/18 06:33:54;;;;;;;0.63;0.40;;;;;;;11.34;68.91;99904.81;7402709;19;20078;-59
2022/12/18 06:36:21;;;;;;;4.95;1.67;;;;;;;11.49;68.89;99910.38;7402492;19;20018;-59
2022/12/18 06:38:47;;;;;;;14.55;1.58;;;;;;;11.57;68.51;99917.09;7402148;19;20066;-58
2022/12/18 06:41:15;;;;;;;3.08;2.80;;;;;;;11.54;68.61;99917.31;7401539;19;20033;-58
2022/12/18 06:43:42;;;;;;;29.83;2.05;;;;;;;11.36;68.92;99926.63;7397748;19;20010;-59
2022/12/18 06:46:09;;;;;;;2.25;1.42;;;;;;;11.50;68.84;99916.72;7394486;19;20015;-59
2022/12/18 06:48:35;;;;;;;2.95;1.77;;;;;;;11.36;68.63;99912.69;7393254;19;20006;-59
2022/12/18 06:51:02;;;;;;;2.10;1.23;;;;;;;11.41;68.76;99915.56;7397566;19;20034;-59
2022/12/18 06:53:29;;;;;;;2.88;1.85;;;;;;;11.28;69.19;99912.28;7398613;19;20109;-59
2022/12/18 06:56:03;;;;;;;4.18;1.77;;;;;;;11.15;69.48;99911.03;7394926;19;20010;-59
2022/12/18 06:58:29;;;;;;;4.10;2.47;;;;;;;11.18;69.50;99905.25;7392440;19;20038;-59
2022/12/18 07:01:04;;;;;;;1.55;1.17;;;;;;;11.08;69.75;99892.66;7391870;19;20066;-58
2022/12/18 07:03:30;;;;;;;3.80;2.05;;;;;;;11.23;69.52;99881.50;7397330;19;20471;-59
2022/12/18 07:05:56;;;;;;;3.50;2.08;;;;;;;11.32;69.03;99884.22;7394162;19;20037;-58
2022/12/18 07:08:23;;;;;;;10.48;2.40;;;;;;;11.34;68.84;99895.66;7394137;19;20078;-59
2022/12/18 07:10:49;;;;;;;9.07;2.03;;;;;;;11.34;68.96;99892.88;7394665;19;20121;-58
2022/12/18 07:13:16;;;;;;;1.77;1.52;;;;;;;11.34;68.62;99879.72;7397774;19;20007;-58
2022/12/18 07:15:43;;;;;;;6.38;2.92;;;;;;;11.47;68.33;99879.41;7393104;19;20010;-58
2022/12/18 07:18:09;;;;;;;35.60;3.45;;;;;;;11.36;68.89;99868.84;7393730;19;20018;-59
2022/12/18 07:20:35;;;;;;;6.07;2.20;;;;;;;11.36;68.56;99865.28;7390272;19;20018;-59
2022/12/18 07:23:02;;;;;;;6.45;2.50;;;;;;;11.35;68.17;99858.16;7392661;19;20602;-58
2022/12/18 07:25:29;;;;;;;1.92;1.75;;;;;;;11.52;68.04;99864.78;7393848;19;20014;-58
2022/12/18 07:27:55;;;;;;;7.88;3.65;;;;;;;11.66;67.40;99869.59;7394269;19;20103;-59
2022/12/18 07:30:21;;;;;;;14.48;2.13;;;;;;;11.47;67.47;99873.84;7392884;19;20017;-58
2022/12/18 07:32:47;;;;;;;8.40;2.88;;;;;;;11.52;67.73;99875.94;7395616;19;20011;-58
2022/12/18 07:35:13;;;;;;;7.38;3.28;;;;;;;11.55;67.94;99866.63;7392671;19;20325;-58
2022/12/18 07:37:39;;;;;;;4.55;1.65;;;;;;;11.74;67.26;99858.81;7392990;19;20019;-59
2022/12/18 07:40:06;;;;;;;9.15;3.25;;;;;;;11.68;67.09;99863.56;7391148;19;20010;-59
2022/12/18 07:42:32;;;;;;;28.58;1.98;;;;;;;11.35;67.38;99874.88;7397407;19;20028;-59
2022/12/18 07:45:00;;;;;;;5.50;1.42;;;;;;;11.03;67.98;99879.38;7393154;19;20043;-58
2022/12/18 07:47:26;;;;;;;7.03;2.33;;;;;;;11.15;68.32;99891.50;7393157;19;20017;-58
2022/12/18 07:49:53;;;;;;;7.95;2.35;;;;;;;11.10;67.92;99890.16;7392961;19;20024;-58
2022/12/18 07:52:19;;;;;;;3.42;3.22;;;;;;;11.08;68.39;99881.50;7394493;19;20220;-59
2022/12/18 07:54:45;;;;;;;1.20;1.15;;;;;;;10.97;68.56;99875.72;7392066;19;20027;-58
2022/12/18 07:57:11;;;;;;;3.50;1.65;;;;;;;10.89;68.96;99873.78;7391748;19;20031;-58
2022/12/18 07:59:38;;;;;;;15.13;3.47;;;;;;;10.74;69.49;99862.63;7390019;19;20048;-58
2022/12/18 08:02:04;;;;;;;5.18;3.17;;;;;;;10.68;69.48;99868.06;7393755;19;20014;-58
2022/12/18 08:04:30;;;;;;;15.07;3.10;;;;;;;10.68;69.49;99881.97;7390148;19;20090;-59
2022/12/18 08:06:56;;;;;;;5.18;1.27;;;;;;;10.61;69.88;99876.75;7392451;19;20003;-59
2022/12/18 08:09:22;;;;;;;3.20;0.95;;;;;;;10.62;69.48;99889.47;7391901;19;20006;-59
2022/12/18 08:11:48;;;;;;;9.18;4.03;;;;;;;10.79;69.60;99869.50;7393984;19;20022;-59
2022/12/18 08:14:15;;;;;;;3.92;1.90;;;;;;;10.79;69.56;99875.09;7390918;19;20010;-59
2022/12/18 08:16:41;;;;;;;5.72;1.83;;;;;;;10.82;69.54;99868.56;7395334;19;20616;-59
2022/12/18 08:19:07;;;;;;;2.00;1.25;;;;;;;10.71;69.73;99869.13;7391621;19;20014;-59
2022/12/18 08:21:33;;;;;;;8.07;2.10;;;;;;;10.79;69.82;99880.66;7392905;19;20010;-59
2022/12/18 08:24:01;;;;;;;1.60;1.27;;;;;;;10.87;69.41;99881.84;7395514;19;20023;-59
2022/12/18 08:26:29;;;;;;;15.20;3.60;;;;;;;10.91;69.10;99882.44;7395104;19;20017;-59
2022/12/18 08:28:57;;;;;;;10.90;2.65;;;;;;;11.02;68.85;99877.06;7394538;19;20007;-59
2022/12/18 08:31:26;;;;;;;15.38;3.80;;;;;;;10.93;69.07;99874.38;7394510;19;20070;-59
2022/12/18 08:33:52;;;;;;;9.77;1.80;;;;;;;10.96;68.80;99862.28;7391025;19;20094;-59
2022/12/18 08:36:20;;;;;;;1.63;0.93;;;;;;;10.85;69.30;99853.69;7395793;19;20015;-59
2022/12/18 08:38:46;;;;;;;10.98;1.98;;;;;;;10.86;69.04;99846.88;7393500;19;20038;-59
2022/12/18 08:41:15;;;;;;;7.00;1.70;;;;;;;10.96;68.82;99851.13;7393183;19;20014;-58
2022/12/18 08:46:43;;;;;;;15.68;2.15;;;;;;;10.92;68.98;99833.81;7388968;19;20010;-59
2022/12/18 08:49:11;;;;;;;11.73;3.42;;;;;;;10.99;69.19;99827.88;7391478;19;20047;-59
2022/12/18 08:51:38;;;;;;;19.77;5.28;;;;;;;11.04;68.50;99824.41;7397139;19;20078;-59
2022/12/18 08:54:05;;;;;;;5.68;2.08;;;;;;;11.08;68.68;99817.41;7390960;19;20021;-59
2022/12/18 08:56:31;;;;;;;10.85;1.88;;;;;;;11.14;68.61;99823.06;7391376;19;20490;-61
2022/12/18 08:58:57;;;;;;;5.13;2.85;;;;;;;11.09;68.23;99821.72;7393679;19;20014;-61
2022/12/18 09:01:24;;;;;;;5.47;2.33;;;;;;;11.04;68.54;99824.41;7392918;19;20066;-61
2022/12/18 09:03:51;;;;;;;12.05;3.42;;;;;;;11.13;68.78;99822.28;7395085;19;20017;-61
2022/12/18 09:06:18;;;;;;;8.00;3.20;;;;;;;11.01;68.89;99817.00;7393726;19;20018;-61
2022/12/18 09:08:45;;;;;;;7.65;2.03;;;;;;;10.90;68.85;99809.22;7395814;19;20021;-61
2022/12/18 09:11:20;;;;;;;7.88;2.97;;;;;;;10.77;69.57;99782.88;7395517;19;20026;-61
2022/12/18 09:13:46;;;;;;;5.88;1.73;;;;;;;10.75;69.29;99780.56;7393780;19;20360;-61
2022/12/18 09:16:13;;;;;;;3.60;2.55;;;;;;;10.69;69.67;99760.22;7390085;19;20027;-61
2022/12/18 09:18:39;;;;;;;23.70;3.25;;;;;;;10.70;70.01;99764.53;7389628;19;20515;-61
2022/12/18 09:21:12;;;;;;;4.28;3.90;;;;;;;10.74;69.68;99756.00;7387663;19;20520;-61
2022/12/18 09:23:39;;;;;;;2.70;1.55;;;;;;;10.74;69.67;99750.41;7394505;19;20014;-61
2022/12/18 09:26:05;;;;;;;6.72;1.77;;;;;;;10.79;69.63;99735.81;7389496;19;20501;-61
2022/12/18 09:28:31;;;;;;;4.90;2.40;;;;;;;10.85;69.79;99740.22;7390526;19;20463;-61
2022/12/18 09:30:57;;;;;;;5.35;1.75;;;;;;;10.89;69.74;99734.47;7390116;19;20017;-61
2022/12/18 09:33:23;;;;;;;12.05;3.00;;;;;;;10.97;69.48;99732.84;7392434;19;20070;-61
2022/12/18 09:35:50;;;;;;;7.88;2.40;;;;;;;10.92;69.61;99725.16;7388290;19;20014;-62
2022/12/18 09:38:19;;;;;;;15.07;2.13;;;;;;;11.12;69.44;99719.66;7388886;19;20082;-61
2022/12/18 09:40:52;;;;;;;2.92;1.88;;;;;;;11.19;69.30;99730.44;7387670;19;20360;-61
2022/12/18 09:43:26;;;;;;;9.60;2.38;;;;;;;11.22;69.15;99724.63;7391237;19;20011;-60
2022/12/18 09:46:02;;;;;;;1.88;0.82;;;;;;;11.28;68.80;99716.38;7388689;19;20014;-61
2022/12/18 09:48:34;;;;;;;3.78;3.35;;;;;;;11.35;68.52;99713.16;7388749;19;20015;-61
2022/12/18 09:51:11;;;;;;;3.72;1.88;;;;;;;11.35;68.43;99704.81;7391400;19;20467;-61
2022/12/18 09:53:39;;;;;;;2.35;2.25;;;;;;;11.36;68.34;99692.41;7392732;19;20025;-61
2022/12/18 09:56:06;;;;;;;3.85;1.92;;;;;;;11.20;69.26;99692.91;7387324;19;20022;-61
2022/12/18 09:58:48;;;;;;;7.70;2.78;;;;;;;11.21;69.17;99691.69;7389298;19;20010;-61
2022/12/18 10:01:20;;;;;;;5.10;2.60;;;;;;;11.15;68.83;99690.84;7387065;19;20003;-61
2022/12/18 10:03:47;;;;;;;7.80;3.10;;;;;;;11.15;69.03;99679.69;7388939;19;20015;-60
2022/12/18 10:06:15;;;;;;;4.68;1.33;;;;;;;11.16;69.25;99664.47;7389118;19;20007;-61
2022/12/18 10:09:03;;;;;;;15.60;3.40;;;;;;;11.29;68.75;99659.34;7386474;19;20018;-61
2022/12/18 10:11:44;;;;;;;13.50;2.88;;;;;;;11.07;69.21;99656.25;7391201;19;20017;-61
2022/12/18 10:14:38;;;;;;;2.25;1.42;;;;;;;11.02;69.13;99648.56;7389134;19;20010;-61
2022/12/18 10:17:41;;;;;;;3.30;1.45;;;;;;;11.02;69.14;99640.22;7388586;19;20032;-61
2022/12/18 10:20:22;;;;;;;13.25;3.42;;;;;;;10.95;69.27;99626.69;7394419;19;20010;-61
2022/12/18 10:23:06;;;;;;;10.30;3.60;;;;;;;10.97;69.67;99630.53;7398716;19;20010;-61
2022/12/18 10:25:54;;;;;;;11.70;2.20;;;;;;;10.86;69.88;99624.00;7396367;19;20025;-61
2022/12/18 10:28:23;;;;;;;5.82;2.67;;;;;;;10.93;69.90;99612.47;7395312;19;20010;-61
2022/12/18 10:30:49;;;;;;;7.85;2.35;;;;;;;10.93;70.04;99613.25;7394970;19;20011;-61
2022/12/18 10:33:24;;;;;;;15.55;3.75;;;;;;;10.91;70.04;99609.41;7398613;19;20014;-61
2022/12/18 10:35:51;;;;;;;10.23;2.85;;;;;;;11.08;70.12;99608.41;7395790;19;20026;-61
2022/12/18 10:38:17;;;;;;;7.97;2.90;;;;;;;10.98;70.16;99590.25;7395091;19;20379;-60
2022/12/18 10:40:49;;;;;;;12.57;3.97;;;;;;;10.93;70.35;99601.31;7393544;19;20372;-61
2022/12/18 10:43:29;;;;;;;7.05;2.33;;;;;;;11.12;70.18;99605.41;7398117;19;20559;-60
2022/12/18 10:46:08;;;;;;;5.38;2.03;;;;;;;11.20;69.78;99604.50;7393626;19;20038;-61
2022/12/18 10:48:55;;;;;;;5.97;2.72;;;;;;;11.26;70.00;99596.22;7392870;19;20010;-60
2022/12/18 10:51:33;;;;;;;16.10;4.97;;;;;;;11.23;69.97;99592.41;7394804;19;20446;-60
2022/12/18 10:54:22;;;;;;;4.63;2.47;;;;;;;11.17;70.12;99593.56;7394921;19;20015;-60
2022/12/18 10:56:48;;;;;;;2.63;1.70;;;;;;;11.13;70.39;99579.81;7394664;19;20011;-60
2022/12/18 10:59:17;;;;;;;5.22;1.52;;;;;;;11.16;70.56;99592.03;7394001;19;20329;-60
2022/12/18 11:01:56;;;;;;;9.63;3.13;;;;;;;11.17;70.57;99582.41;7395163;19;20003;-59
2022/12/18 11:04:28;;;;;;;12.30;3.40;;;;;;;11.22;70.12;99573.34;7395271;19;20014;-60
2022/12/18 11:06:54;;;;;;;;;;;;;;;11.20;70.47;99575.84;7395057;19;20015;-60
2022/12/18 11:09:22;;;;;;;3.30;1.38;;;;;;;11.44;69.87;99570.84;7393168;19;19937;-60
2022/12/18 11:11:56;;;;;;;3.45;1.85;;;;;;;11.45;69.44;99564.03;7394759;19;20070;-60
2022/12/18 11:14:26;;;;;;;2.92;2.03;;;;;;;11.31;69.71;99550.91;7393279;19;20041;-60
2022/12/18 11:16:55;;;;;;;4.43;1.23;;;;;;;11.16;70.23;99541.84;7393333;19;20018;-60
2022/12/18 11:19:22;;;;;;;2.42;1.40;;;;;;;11.13;71.22;99537.28;7392343;19;20373;-60
2022/12/18 11:21:48;;;;;;;21.92;2.85;;;;;;;11.21;70.62;99543.97;7392686;19;20006;-59
2022/12/18 11:24:35;;;;;;;4.22;2.20;;;;;;;11.29;71.13;99533.91;7392460;19;20003;-60
2022/12/18 11:27:04;;;;;;;1.98;1.88;;;;;;;11.36;70.79;99525.13;7390736;19;20050;-60
2022/12/18 11:29:38;;;;;;;5.20;1.65;;;;;;;11.34;70.61;99508.91;7392264;19;20014;-60
2022/12/18 11:32:26;;;;;;;6.10;1.40;;;;;;;11.42;71.21;99514.81;7392489;19;20017;-60
2022/12/18 11:35:07;;;;;;;3.85;2.60;;;;;;;11.34;71.10;99502.56;7397525;19;20025;-59
2022/12/18 11:37:34;;;;;;;20.40;3.15;;;;;;;11.28;71.73;99515.66;7394113;19;20011;-59
2022/12/18 11:40:32;;;;;;;5.45;1.63;;;;;;;11.23;71.90;99494.06;7390658;19;20011;-59
2022/12/18 11:43:37;;;;;;;13.40;4.07;;;;;;;11.41;71.94;99485.41;7394837;19;20031;-60
2022/12/18 11:46:11;;;;;;;4.22;1.42;;;;;;;11.12;72.54;99491.91;7388253;19;20018;-59
2022/12/18 11:48:44;;;;;;;5.50;2.90;;;;;;;11.14;72.80;99491.41;7391999;19;20014;-59
2022/12/18 11:51:19;;;;;;;3.72;1.45;;;;;;;11.19;73.02;99474.78;7395385;19;20017;-60